South Waltham, Massachusetts
Current Conditions -  °F | °C
As of 2:56 PM on Friday 19 Dec 2014 (Local Time) from KBED Reporting Station
Overcast Overcast  
Wind Chill: 26°   Ceiling: 3400
Heat Index: 34°   Visibility: 10mi
Dew Point: 21°   Wind: 10mph
Humidity: 59%   Direction: 300°WNW
Pressure: 29.97"   Gusts: NA
Location:  42.3696°N, 71.2353°W
Report Text: KBED 191956Z 30009KT 10SM OVC034 01/M06 A2997 RMK AO2 SLP163 T00111061
Loading
Personal Weather Stations






























Interactive Weather Map New forecast layout! Learn more

10-Day Weather Forecast

Advertisements
Track Severe Weather on mobile